createdAt,value
2022-09-05T00:02:56.894Z,63.66
2022-09-05T00:06:04.944Z,63.75
2022-09-05T00:09:12.870Z,63.74
2022-09-05T00:12:14.753Z,63.76
2022-09-05T00:15:23.568Z,63.97
2022-09-05T00:24:18.630Z,63.89
2022-09-05T00:24:24.864Z,63.93
2022-09-05T00:25:55.514Z,63.91
2022-09-05T00:29:03.411Z,63.88
2022-09-05T00:32:12.619Z,64.01
2022-09-05T00:35:25.971Z,64.04
2022-09-05T00:38:36.620Z,63.96
2022-09-05T00:41:41.099Z,64.24
2022-09-05T00:44:50.506Z,64.28
2022-09-05T00:47:57.434Z,64.32
2022-09-05T00:51:13.226Z,64.33
2022-09-05T00:54:41.073Z,64.51
2022-09-05T00:57:52.975Z,64.69
2022-09-05T01:00:55.615Z,64.63
2022-09-05T01:04:05.928Z,64.68
2022-09-05T01:07:13.367Z,64.66
2022-09-05T01:10:23.624Z,64.90
2022-09-05T01:13:35.960Z,64.91
2022-09-05T01:16:45.138Z,65.19
2022-09-05T01:20:19.386Z,65.36
2022-09-05T01:23:31.043Z,65.33
2022-09-05T01:26:50.222Z,65.45
2022-09-05T01:29:57.036Z,65.37
2022-09-05T01:33:06.118Z,65.56
2022-09-05T01:36:32.171Z,65.71
2022-09-05T01:40:15.475Z,65.99
2022-09-05T01:43:12.301Z,66.18
2022-09-05T01:46:22.721Z,66.43
2022-09-05T01:49:35.797Z,66.52
2022-09-05T01:52:57.319Z,66.67
2022-09-05T01:56:17.396Z,66.86
2022-09-05T01:59:23.303Z,66.88
2022-09-05T02:02:50.176Z,67.34
2022-09-05T02:06:22.173Z,67.16
2022-09-05T02:09:36.337Z,66.94
2022-09-05T02:12:42.154Z,67.01
2022-09-05T02:15:51.175Z,67.41
2022-09-05T02:19:06.892Z,67.52
2022-09-05T02:22:10.813Z,67.55
2022-09-05T02:26:00.179Z,67.50
2022-09-05T02:28:42.731Z,67.65
2022-09-05T02:31:46.663Z,68.13
2022-09-05T02:34:54.738Z,68.30
2022-09-05T02:39:19.963Z,68.25
2022-09-05T02:45:07.732Z,68.54
2022-09-05T02:45:13.704Z,68.54
2022-09-05T02:48:22.732Z,68.28
2022-09-05T02:57:25.700Z,68.09
2022-09-05T02:57:37.437Z,67.91
2022-09-05T02:58:25.246Z,68.21
2022-09-05T03:01:35.934Z,68.35
2022-09-05T03:04:42.164Z,68.20
2022-09-05T03:07:53.171Z,68.12
2022-09-05T03:11:12.184Z,68.30
2022-09-05T03:14:32.500Z,68.31
2022-09-05T03:17:47.154Z,68.57
2022-09-05T03:21:09.198Z,68.67
2022-09-05T03:24:30.259Z,68.48
2022-09-05T03:27:46.688Z,68.59
2022-09-05T03:30:58.529Z,68.60
2022-09-05T03:34:13.726Z,68.64
2022-09-05T03:37:34.083Z,68.65
2022-09-05T03:40:47.146Z,68.58
2022-09-05T03:44:09.920Z,68.37
2022-09-05T03:47:23.029Z,68.45
2022-09-05T03:57:13.710Z,68.60
2022-09-05T03:57:19.855Z,68.65
2022-09-05T03:57:41.445Z,68.43
2022-09-05T04:00:47.242Z,68.42
2022-09-05T04:08:11.496Z,68.38
2022-09-05T04:08:16.719Z,68.38
2022-09-05T04:10:50.758Z,68.66
2022-09-05T04:13:56.006Z,68.59
2022-09-05T04:17:01.022Z,68.71
2022-09-05T04:20:08.533Z,68.56
2022-09-05T04:23:15.982Z,68.66
2022-09-05T04:26:25.505Z,68.57
2022-09-05T04:29:35.841Z,68.67
2022-09-05T04:32:45.332Z,68.67
2022-09-05T04:35:52.654Z,68.54
2022-09-05T04:39:09.591Z,68.65
2022-09-05T04:42:18.736Z,68.79
2022-09-05T04:45:24.567Z,68.80
2022-09-05T04:48:28.854Z,68.78
2022-09-05T04:51:45.203Z,68.67
2022-09-05T04:55:07.281Z,68.61
2022-09-05T04:58:13.685Z,68.58
2022-09-05T05:05:58.863Z,68.61
2022-09-05T05:06:19.978Z,68.55
2022-09-05T05:08:03.776Z,68.46
2022-09-05T05:15:00.129Z,68.83
2022-09-05T05:18:07.468Z,69.01
2022-09-05T05:18:49.092Z,68.89
2022-09-05T05:21:28.337Z,68.47
2022-09-05T05:24:32.436Z,68.78
2022-09-05T05:27:41.129Z,68.94
2022-09-05T05:30:43.463Z,68.95
2022-09-05T05:33:47.282Z,69.18
2022-09-05T05:36:50.991Z,69.06
2022-09-05T05:40:00.618Z,68.96
2022-09-05T05:43:17.420Z,69.02
2022-09-05T05:46:30.484Z,69.22
2022-09-05T05:49:40.195Z,69.41
2022-09-05T05:52:59.716Z,69.35
2022-09-05T05:56:19.412Z,69.20
2022-09-05T05:59:45.972Z,69.15
2022-09-05T06:03:26.878Z,68.70
2022-09-05T06:06:37.125Z,68.54
2022-09-05T06:14:49.817Z,68.14
2022-09-05T06:14:59.827Z,67.87
2022-09-05T06:17:28.335Z,67.77
2022-09-05T06:22:08.690Z,67.68
2022-09-05T06:24:29.015Z,67.66
2022-09-05T06:28:17.954Z,67.55
2022-09-05T06:31:31.396Z,67.36
2022-09-05T06:34:58.102Z,67.35
2022-09-05T06:38:08.408Z,67.07
2022-09-05T06:41:22.188Z,67.18
2022-09-05T06:44:36.233Z,66.92
2022-09-05T06:47:40.716Z,67.02
2022-09-05T06:51:07.116Z,66.76
2022-09-05T06:54:22.590Z,66.70
2022-09-05T06:57:51.614Z,66.25
2022-09-05T07:00:55.370Z,66.04
2022-09-05T07:05:14.791Z,65.66
2022-09-05T07:07:36.028Z,65.22
2022-09-05T07:10:39.771Z,64.96
2022-09-05T07:13:48.022Z,65.06
2022-09-05T07:16:59.113Z,64.60
2022-09-05T07:20:01.973Z,64.98
2022-09-05T07:23:38.319Z,64.80
2022-09-05T07:26:52.169Z,65.60
2022-09-05T07:30:00.881Z,65.57
2022-09-05T07:33:04.739Z,65.55
2022-09-05T07:36:09.251Z,65.50
2022-09-05T07:39:28.257Z,64.94
2022-09-05T07:42:32.808Z,64.81
2022-09-05T07:45:37.110Z,64.90
2022-09-05T07:48:45.371Z,64.23
2022-09-05T07:56:51.064Z,63.97
2022-09-05T07:57:17.462Z,63.69
2022-09-05T07:58:50.537Z,63.45
2022-09-05T08:01:53.969Z,63.55
2022-09-05T08:05:01.992Z,63.70
2022-09-05T08:08:05.555Z,63.93
2022-09-05T08:11:25.669Z,64.12
2022-09-05T08:14:44.934Z,63.99
2022-09-05T08:17:53.056Z,64.16
2022-09-05T08:20:58.938Z,63.77
2022-09-05T08:24:13.224Z,63.99
2022-09-05T08:27:18.617Z,64.12
2022-09-05T08:30:25.974Z,63.69
2022-09-05T08:33:32.765Z,63.79
2022-09-05T08:36:38.210Z,63.37
2022-09-05T08:39:41.385Z,62.98
2022-09-05T08:43:39.363Z,62.79
2022-09-05T08:46:46.221Z,62.51
2022-09-05T08:49:44.053Z,62.06
2022-09-05T08:52:58.366Z,61.48
2022-09-05T08:56:02.004Z,60.94
2022-09-05T08:59:31.509Z,60.66
2022-09-05T09:02:52.471Z,60.75
2022-09-05T09:06:16.130Z,60.38
2022-09-05T09:09:24.761Z,60.15
2022-09-05T09:12:49.214Z,60.04
2022-09-05T09:15:59.370Z,59.17
2022-09-05T09:19:09.604Z,59.23
2022-09-05T09:22:18.206Z,59.10
2022-09-05T09:25:26.401Z,58.84
2022-09-05T09:28:49.424Z,58.46
2022-09-05T09:32:04.269Z,58.67
2022-09-05T09:35:09.941Z,58.28
2022-09-05T09:38:23.894Z,57.77
2022-09-05T09:41:34.551Z,57.36
2022-09-05T09:44:57.084Z,57.27
2022-09-05T09:48:19.919Z,57.63
2022-09-05T09:51:31.499Z,58.16
2022-09-05T09:54:50.960Z,57.42
2022-09-05T09:58:07.517Z,57.10
2022-09-05T10:01:20.298Z,56.88
2022-09-05T10:10:36.454Z,56.03
2022-09-05T10:10:47.947Z,55.34
2022-09-05T10:11:57.295Z,55.60
2022-09-05T10:15:30.188Z,55.74
2022-09-05T10:18:36.260Z,55.00
2022-09-05T10:25:27.924Z,55.10
2022-09-05T10:28:39.546Z,55.33
2022-09-05T10:35:09.625Z,54.89
2022-09-05T10:35:27.877Z,53.43
2022-09-05T10:38:35.979Z,53.41
2022-09-05T10:41:44.253Z,53.72
2022-09-05T10:44:48.376Z,53.47
2022-09-05T10:47:58.587Z,52.20
2022-09-05T10:51:27.318Z,52.29
2022-09-05T10:54:39.217Z,52.96
2022-09-05T10:57:45.673Z,52.59
2022-09-05T11:02:19.092Z,52.21
2022-09-05T11:04:30.475Z,50.47
2022-09-05T11:07:47.821Z,49.17
2022-09-05T11:10:52.073Z,50.96
2022-09-05T11:13:55.561Z,50.63
2022-09-05T11:17:04.740Z,50.08
2022-09-05T11:20:27.676Z,50.46
2022-09-05T11:23:40.107Z,49.97
2022-09-05T11:26:51.375Z,49.60
2022-09-05T11:30:28.718Z,48.59
2022-09-05T11:38:25.397Z,48.53
2022-09-05T11:40:07.145Z,47.88
2022-09-05T11:41:09.782Z,47.27
2022-09-05T11:44:35.881Z,47.59
2022-09-05T11:48:02.455Z,48.34
2022-09-05T11:51:19.699Z,47.75
2022-09-05T11:54:50.298Z,48.22
2022-09-05T11:58:19.948Z,47.27
2022-09-05T12:01:43.502Z,46.96
2022-09-05T12:05:49.031Z,47.25
2022-09-05T12:08:20.886Z,46.73
2022-09-05T12:11:34.580Z,45.46
2022-09-05T12:14:49.355Z,44.80
2022-09-05T12:18:21.925Z,44.47
2022-09-05T12:21:28.960Z,44.07
2022-09-05T12:25:24.471Z,43.17
2022-09-05T12:28:40.443Z,42.66
2022-09-05T12:32:49.501Z,42.10
2022-09-05T12:36:12.350Z,42.29
2022-09-05T12:40:55.454Z,42.43
2022-09-05T12:42:14.612Z,41.68
2022-09-05T12:45:19.304Z,40.57
2022-09-05T12:48:40.581Z,40.35
2022-09-05T12:51:56.078Z,40.69
2022-09-05T12:55:02.041Z,40.44
2022-09-05T13:02:56.638Z,40.73
2022-09-05T13:03:07.156Z,40.12
2022-09-05T13:05:12.992Z,40.41
2022-09-05T13:08:21.139Z,39.83
2022-09-05T13:15:03.095Z,39.51
2022-09-05T13:15:21.726Z,40.28
2022-09-05T13:18:27.657Z,40.61
2022-09-05T13:21:32.565Z,40.08
2022-09-05T13:24:37.365Z,39.83
2022-09-05T13:27:46.577Z,39.58
2022-09-05T13:34:58.581Z,38.61
2022-09-05T13:38:00.838Z,38.54
2022-09-05T13:38:10.677Z,38.82
2022-09-05T13:41:07.354Z,38.73
2022-09-05T13:44:31.097Z,37.95
2022-09-05T13:47:51.094Z,38.41
2022-09-05T13:50:55.122Z,38.14
2022-09-05T13:54:07.760Z,38.15
2022-09-05T13:57:32.643Z,37.62
2022-09-05T14:00:52.736Z,38.10
2022-09-05T14:08:17.986Z,37.80
2022-09-05T14:11:38.169Z,37.87
2022-09-05T14:18:21.557Z,36.95
2022-09-05T14:21:25.790Z,36.39
2022-09-05T14:24:28.435Z,36.30
2022-09-05T14:27:32.702Z,36.67
2022-09-05T14:33:19.161Z,36.53
2022-09-05T14:37:41.132Z,36.55
2022-09-05T14:38:04.257Z,36.03
2022-09-05T14:41:28.340Z,35.57
2022-09-05T14:44:44.199Z,35.70
2022-09-05T14:47:59.824Z,35.41
2022-09-05T14:51:24.416Z,36.01
2022-09-05T15:02:30.001Z,35.85
2022-09-05T15:02:58.393Z,36.11
2022-09-05T15:04:44.830Z,36.18
2022-09-05T15:07:47.907Z,35.63
2022-09-05T15:12:15.089Z,35.64
2022-09-05T15:14:13.029Z,35.38
2022-09-05T15:17:21.874Z,35.68
2022-09-05T15:20:34.564Z,35.76
2022-09-05T15:23:36.355Z,35.49
2022-09-05T15:26:47.006Z,35.57
2022-09-05T15:29:54.213Z,36.17
2022-09-05T15:33:11.018Z,36.04
2022-09-05T15:36:15.032Z,35.90
2022-09-05T15:39:21.005Z,35.59
2022-09-05T15:42:30.353Z,34.89
2022-09-05T15:45:35.386Z,36.74
2022-09-05T15:48:40.871Z,37.63
2022-09-05T15:51:46.564Z,38.83
2022-09-05T15:54:49.936Z,40.42
2022-09-05T15:57:52.993Z,41.18
2022-09-05T16:00:57.689Z,41.73
2022-09-05T16:07:06.839Z,42.30
2022-09-05T16:10:38.140Z,42.93
2022-09-05T16:11:19.765Z,43.08
2022-09-05T16:14:12.799Z,43.38
2022-09-05T16:23:13.324Z,43.78
2022-09-05T16:23:26.555Z,44.34
2022-09-05T16:24:13.782Z,44.51
2022-09-05T16:27:21.064Z,44.84
2022-09-05T16:30:28.281Z,44.92
2022-09-05T16:33:30.906Z,45.04
2022-09-05T16:36:35.029Z,45.15
2022-09-05T16:39:42.930Z,45.33
2022-09-05T16:42:48.338Z,45.55
2022-09-05T16:45:52.608Z,45.70
2022-09-05T16:48:57.456Z,45.89
2022-09-05T16:52:01.918Z,46.00
2022-09-05T16:55:21.883Z,46.45
2022-09-05T16:58:32.397Z,46.43
2022-09-05T17:01:42.584Z,46.58
2022-09-05T17:05:04.876Z,46.62
2022-09-05T17:08:11.339Z,46.77
2022-09-05T17:11:30.075Z,47.11
2022-09-05T17:14:34.934Z,47.43
2022-09-05T17:18:19.908Z,47.44
2022-09-05T17:21:08.341Z,47.36
2022-09-05T17:27:33.922Z,47.84
2022-09-05T17:29:47.236Z,48.00
2022-09-05T17:34:39.064Z,47.87
2022-09-05T17:37:53.478Z,48.16
2022-09-05T17:41:19.718Z,48.53
2022-09-05T17:44:25.276Z,48.55
2022-09-05T17:47:36.305Z,48.87
2022-09-05T17:50:51.111Z,49.05
2022-09-05T17:54:16.214Z,49.05
2022-09-05T17:57:31.936Z,49.23
2022-09-05T18:00:49.704Z,49.42
2022-09-05T18:04:17.128Z,49.56
2022-09-05T18:07:41.181Z,49.80
2022-09-05T18:11:14.148Z,49.89
2022-09-05T18:14:35.223Z,50.34
2022-09-05T18:17:54.696Z,50.51
2022-09-05T18:21:21.341Z,50.51
2022-09-05T18:24:24.654Z,50.64
2022-09-05T18:28:04.441Z,50.57
2022-09-05T18:31:27.193Z,50.90
2022-09-05T18:35:06.804Z,50.94
2022-09-05T18:38:50.037Z,50.92
2022-09-05T18:41:48.537Z,50.90
2022-09-05T18:44:53.743Z,51.08
2022-09-05T18:48:03.269Z,51.02
2022-09-05T18:51:13.296Z,51.37
2022-09-05T18:54:21.945Z,51.21
2022-09-05T18:57:29.245Z,51.46
2022-09-05T19:00:44.501Z,51.59
2022-09-05T19:03:52.336Z,51.97
2022-09-05T19:06:54.749Z,51.78
2022-09-05T19:10:33.871Z,52.00
2022-09-05T19:13:31.801Z,52.01
2022-09-05T19:16:43.356Z,52.22
2022-09-05T19:37:08.192Z,53.08
2022-09-05T19:42:54.215Z,53.38
2022-09-05T19:47:30.004Z,53.54
2022-09-05T19:47:41.042Z,53.47
2022-09-05T19:49:55.181Z,53.99
2022-09-05T19:53:05.449Z,54.09
2022-09-05T19:56:07.456Z,54.12
2022-09-05T19:59:19.396Z,54.54
2022-09-05T20:02:24.806Z,54.74
2022-09-05T20:05:26.751Z,54.82
2022-09-05T20:21:41.615Z,56.03
2022-09-05T20:27:53.832Z,56.25
2022-09-05T20:44:00.285Z,57.13
2022-09-05T20:52:38.071Z,57.54
2022-09-05T20:54:16.976Z,57.60
2022-09-05T20:54:22.377Z,57.65
2022-09-05T20:57:16.151Z,57.70
2022-09-05T21:13:21.871Z,58.06
2022-09-05T21:16:28.046Z,57.81
2022-09-05T21:19:30.725Z,57.58
2022-09-05T21:22:39.393Z,57.91
2022-09-05T21:25:48.615Z,58.05
2022-09-05T21:29:04.102Z,57.87
2022-09-05T21:32:11.065Z,57.86
2022-09-05T21:35:33.762Z,57.83
2022-09-05T21:38:40.676Z,57.67
2022-09-05T21:41:42.535Z,57.71
2022-09-05T21:47:37.457Z,57.64
2022-09-05T21:48:15.484Z,57.56
2022-09-05T21:51:17.260Z,57.52
2022-09-05T21:59:16.214Z,57.86
2022-09-05T21:59:29.036Z,57.99
2022-09-05T22:01:08.559Z,57.75
2022-09-05T22:04:10.167Z,57.66
2022-09-05T22:07:24.283Z,57.63
2022-09-05T22:10:51.688Z,57.57
2022-09-05T22:13:59.966Z,57.74
2022-09-05T22:17:07.640Z,57.77
2022-09-05T22:20:10.642Z,58.14
2022-09-05T22:23:13.020Z,57.83
2022-09-05T22:26:15.554Z,57.85
2022-09-05T22:29:17.580Z,57.83
2022-09-05T22:32:34.041Z,58.09
2022-09-05T22:35:40.385Z,58.40
2022-09-05T22:38:43.523Z,58.63
2022-09-05T22:41:45.357Z,58.53
2022-09-05T22:44:48.262Z,59.04
2022-09-05T22:47:51.768Z,58.89
2022-09-05T22:50:53.455Z,59.08
2022-09-05T22:53:55.011Z,59.32
2022-09-05T22:56:56.492Z,59.26
2022-09-05T22:59:58.345Z,59.63
2022-09-05T23:03:02.166Z,59.99
2022-09-05T23:06:04.208Z,59.78
2022-09-05T23:09:05.733Z,60.23
2022-09-05T23:12:07.377Z,60.25
2022-09-05T23:15:09.980Z,60.33
2022-09-05T23:18:12.979Z,60.55
2022-09-05T23:21:15.078Z,60.17
2022-09-05T23:24:16.577Z,60.54
2022-09-05T23:27:18.286Z,60.64
2022-09-05T23:30:21.734Z,60.43
2022-09-05T23:33:24.671Z,60.78
2022-09-05T23:36:26.307Z,60.79
2022-09-05T23:39:27.775Z,60.58
2022-09-05T23:42:31.652Z,60.64
2022-09-05T23:45:33.679Z,60.59
2022-09-05T23:48:36.952Z,60.81
2022-09-05T23:51:38.502Z,60.95
2022-09-05T23:54:40.048Z,61.18
2022-09-05T23:57:41.918Z,61.24
